Ride Results

Mt Cole (15-04-2006)
Ride distance: 80.0 km

Outcomes - Mt Cole (15-04-2006)
Division No. of Entries Retired / DNE Completed Withdrawn Ineligible V/O Percentage Completed
HW 4 - 4 - - - 100.00%
MW 20 - 17 - - 3 85.00%
LW 11 - 10 - - 1 90.91%
JN 5 - 4 - - 1 80.00%
Totals 40 - 35 - - 5 87.50%
Results - Mt Cole (15-04-2006)
No. Rider Horse Place Time Leg Speeds Total
Km/Hr
H/R bpm
Heavyweight
42r Dianne Tobin Commanche Man 1 6:00:00 13.3, 13.3 13.33 32, 36, 48 (Avg:42)
57v Les Alderton Magaska 2 6:01:00 13.2, 13.3 13.30 36, 40, 50 (Avg:45)
18v Ken Bradley Roheryn Dartagnon 3 6:03:00 13.2, 13.1 13.22 35, 45, 42 (Avg:43)
46r Keith Preston Black Springs Thor 4 8:21:00 11.3, 8.3 9.58 60, 36, 39 (Avg:37)
Middleweight
95v Pauline Wallace Menora Fine Figure 1 4:54:00 19.0, 14.2 16.33 32, 40, 41 (Avg:40)
97v Gordon Wallace Menora Dark Moon 1 4:54:00 19.0, 14.2 16.33 36, 49, 58 (Avg:53)
53v Beverley Rayner-Mason Karumba Nariel 3 5:13:00 19.1, 12.7 15.34 36, 43, 47 (Avg:45)
78v Jennifer Pitman Meg 4 5:14:00 16.3, 14.3 15.29 32, 46, 56 (Avg:51)
2v Carole Bourke Warrawee Lazan 5 5:18:00 15.7, 14.4 15.09 25, 40, 45 (Avg:42)
83b Jan Scholes Karumba Nipper 6 5:34:00 15.3, 13.4 14.37 36, 45, 52 (Avg:48)
42v Hans Peuker Marybank Marcus 7 5:50:00 14.6, 12.9 13.71 33, 46, 51 (Avg:48)
27v Karina Heikkila Freya 8 5:58:00 14.6, 12.3 13.41 32, 36, 51 (Avg:43)
50v Ross Chisholm Naz-ton Royal Bataaz 9 6:00:00 13.3, 13.3 13.33 35, 39, 46 (Avg:42)
84b Alan Salter Cavanagh Felix 10 6:16:00 13.1, 12.3 12.77 36, 44, 46 (Avg:45)
130v Jennifer Carland Musical Gully Tenor 11 6:21:00 13.7, 11.5 12.60 33, 41, 44 (Avg:42)
92b Jo-Anne Francis Tynedale Ali Shamahn 11 6:21:00 13.5, 11.7 12.60 35, 40, 36 (Avg:38)
91b Christine Schepisi Musical Gully Serenade 11 6:21:00 13.1, 12.0 12.60 34, 44, 48 (Avg:46)
100v Fay Bushby Andre Le Marquis 14 6:35:00 13.1, 11.3 12.15 32, 46, 48 (Avg:47)
95b Linda Penhall Hyksos Abbey 15 8:20:00 11.2, 8.3 9.60 42, 45, 45 (Avg:45)
94b Cathy Preston Black Springs Aladdin 16 8:21:00 11.3, 8.3 9.58 40, 38, 44 (Avg:41)
86b Jacki Liuzzi Shahbelle Jade 17 8:23:00 9.4, 9.6 9.54 37, 42 (Avg:39)
89b Merv Fisher Wenway Eternity Lame L2 0:00:00 20.1, 16.4 - 35, 42, 51 (Avg:46)
88b Adrienne Smith Jodie Heart Rate L2 0:00:00 16.5, 14.2 - 41, 40, 65 (Avg:52)
78b Rowena McLean Lynandra Park Trinity Lame L1 0:00:00 13.1 - 34, 43 (Avg:43)
Lightweight
14v Shandal Bengtsson Kedarona Kliche 1 5:13:00 18.0, 13.3 15.34 38, 43, 43 (Avg:43)
17v Sallyann Duke Parlour Mountain Pandora 1 5:13:00 18.0, 13.3 15.34 32, 42, 57 (Avg:49)
132w Marie Gillett Radiums Rusty 3 5:18:00 15.7, 14.4 15.09 37, 47, 50 (Avg:48)
131w Chloe Morris Coranderrk Edison 4 5:28:00 15.7, 13.6 14.63 32, 41, 38 (Avg:39)
22v Sarah McLaughlin Bremervale Promise 5 5:45:00 14.8, 13.1 13.91 33, 38, 47 (Avg:42)
8v Jane McLaughlin Syrahbia 5 5:45:00 14.8, 13.1 13.91 38, 47, 49 (Avg:48)
61v Lois Sharam Musical Gully Tambourine 7 5:49:00 13.7, 13.7 13.75 33, 39, 44 (Avg:41)
11v Rohan Stanes Misarra Silver Prince 8 6:00:00 13.2, 13.4 13.33 29, 40, 51 (Avg:45)
91v Kim Noble Charlie 9 6:02:00 13.2, 13.2 13.26 34, 43, 60 (Avg:51)
47v Leanne Hulstaert Parlour Mountain Helen 10 6:03:00 13.2, 13.1 13.22 31, 40, 47 (Avg:43)
133w Roslyn Trait T'Neesha Heart Rate L2 0:00:00 14.0, 9.2 - 38, 52, 62 (Avg:57)
Junior
38y Samantha Cubbin Clovelly Park Kimba 1 5:34:00 15.3, 13.4 14.37 33, 36, 40 (Avg:38)
37v Luke Bradley Sweet Mountain River 2 6:02:00 13.2, 13.2 13.26 32, 43, 41 (Avg:42)
31v Jessica Mace Avondale Amir 2 6:02:00 13.2, 13.2 13.26 37, 41, 45 (Avg:43)
40y Kate Scott Twilight 4 8:18:00 11.2, 8.4 9.64 35, 40, 51 (Avg:45)
90v Samantha Noble Springridge Locksley Heart Rate L2 0:00:00 13.7, 11.2 - 40, 53, 70 (Avg:61)